createdAt,value
2024-03-12T00:02:17.718Z,1.60
2024-03-12T00:04:44.772Z,1.47
2024-03-12T00:07:12.004Z,1.60
2024-03-12T00:09:39.157Z,1.30
2024-03-12T00:12:06.526Z,1.40
2024-03-12T00:14:34.648Z,1.33
2024-03-12T00:17:01.722Z,1.33
2024-03-12T00:19:28.829Z,1.30
2024-03-12T00:21:56.305Z,1.30
2024-03-12T00:24:24.224Z,1.20
2024-03-12T00:26:51.410Z,1.17
2024-03-12T00:29:20.206Z,1.20
2024-03-12T00:31:47.298Z,1.20
2024-03-12T00:34:15.258Z,1.23
2024-03-12T00:36:43.085Z,1.40
2024-03-12T00:39:11.496Z,1.70
2024-03-12T00:41:38.573Z,1.30
2024-03-12T00:44:06.885Z,1.53
2024-03-12T00:46:33.957Z,1.33
2024-03-12T00:49:01.092Z,1.50
2024-03-12T00:51:30.449Z,1.43
2024-03-12T00:53:57.582Z,1.50
2024-03-12T00:56:24.733Z,1.80
2024-03-12T00:58:53.400Z,2.00
2024-03-12T01:01:21.419Z,1.90
2024-03-12T01:03:48.668Z,2.03
2024-03-12T01:06:15.783Z,2.20
2024-03-12T01:08:43.849Z,2.50
2024-03-12T01:11:11.009Z,1.90
2024-03-12T01:13:40.479Z,2.30
2024-03-12T01:16:07.895Z,2.80
2024-03-12T01:18:35.048Z,2.40
2024-03-12T01:21:02.150Z,2.10
2024-03-12T01:23:29.231Z,2.30
2024-03-12T01:25:56.370Z,2.30
2024-03-12T01:28:23.751Z,2.10
2024-03-12T01:30:50.864Z,2.30
2024-03-12T01:33:19.400Z,2.30
2024-03-12T01:35:48.005Z,2.10
2024-03-12T01:38:15.107Z,2.33
2024-03-12T01:40:42.807Z,2.00
2024-03-12T01:43:10.426Z,2.00
2024-03-12T01:45:38.144Z,2.20
2024-03-12T01:48:08.252Z,2.00
2024-03-12T01:50:36.671Z,1.97
2024-03-12T01:53:08.234Z,1.90
2024-03-12T01:55:38.576Z,1.80
2024-03-12T01:58:05.945Z,1.80
2024-03-12T02:00:34.340Z,1.60
2024-03-12T02:03:01.870Z,1.63
2024-03-12T02:05:28.995Z,1.60
2024-03-12T02:07:56.280Z,1.50
2024-03-12T02:10:23.402Z,1.23
2024-03-12T02:12:50.661Z,1.40
2024-03-12T02:15:24.656Z,1.30
2024-03-12T02:17:53.503Z,1.10
2024-03-12T02:20:22.317Z,1.30
2024-03-12T02:22:49.645Z,1.10
2024-03-12T02:25:16.721Z,1.10
2024-03-12T02:27:43.881Z,1.10
2024-03-12T02:30:11.583Z,1.10
2024-03-12T02:32:42.367Z,1.20
2024-03-12T02:35:12.482Z,1.13
2024-03-12T02:37:40.204Z,0.80
2024-03-12T02:40:09.895Z,0.90
2024-03-12T02:42:37.517Z,1.00
2024-03-12T02:45:05.433Z,0.80
2024-03-12T02:47:32.499Z,0.90
2024-03-12T02:50:00.524Z,0.97
2024-03-12T02:52:28.033Z,1.00
2024-03-12T02:54:55.183Z,0.87
2024-03-12T02:57:23.180Z,0.70
2024-03-12T02:59:50.567Z,0.90
2024-03-12T03:02:17.691Z,0.80
2024-03-12T03:04:44.791Z,1.00
2024-03-12T03:07:12.265Z,0.97
2024-03-12T03:09:39.531Z,0.80
2024-03-12T03:12:06.725Z,0.97
2024-03-12T03:14:33.786Z,0.90
2024-03-12T03:17:00.821Z,1.00
2024-03-12T03:19:28.152Z,1.10
2024-03-12T03:21:55.546Z,1.10
2024-03-12T03:24:22.693Z,1.20
2024-03-12T03:26:52.008Z,1.90
2024-03-12T03:29:22.401Z,1.90
2024-03-12T03:31:49.780Z,1.90
2024-03-12T03:34:18.773Z,3.03
2024-03-12T03:36:46.062Z,3.90
2024-03-12T03:39:13.129Z,3.27
2024-03-12T03:41:40.196Z,3.90
2024-03-12T03:44:07.383Z,3.77
2024-03-12T03:46:34.709Z,4.30
2024-03-12T03:49:01.793Z,3.90
2024-03-12T03:51:28.895Z,4.17
2024-03-12T03:53:56.197Z,4.13
2024-03-12T03:56:24.307Z,4.37
2024-03-12T03:58:52.161Z,5.00
2024-03-12T04:01:20.180Z,4.60
2024-03-12T04:03:47.366Z,4.70
2024-03-12T04:06:14.534Z,4.63
2024-03-12T04:08:41.648Z,5.03
2024-03-12T04:11:09.827Z,4.60
2024-03-12T04:13:37.772Z,5.17
2024-03-12T04:16:07.249Z,5.27
2024-03-12T04:18:36.111Z,5.73
2024-03-12T04:21:04.416Z,5.70
2024-03-12T04:23:31.497Z,5.20
2024-03-12T04:25:58.532Z,4.50
2024-03-12T04:28:25.587Z,4.03
2024-03-12T04:30:53.606Z,4.30
2024-03-12T04:33:20.677Z,4.10
2024-03-12T04:35:48.097Z,4.00
2024-03-12T04:38:17.483Z,4.07
2024-03-12T04:40:48.150Z,4.13
2024-03-12T04:43:16.037Z,3.90
2024-03-12T04:45:43.233Z,3.50
2024-03-12T04:48:11.156Z,3.67
2024-03-12T04:50:38.322Z,3.17
2024-03-12T04:53:08.574Z,2.90
2024-03-12T04:55:35.629Z,3.80
2024-03-12T04:58:02.803Z,3.27
2024-03-12T05:00:32.705Z,3.83
2024-03-12T05:03:01.218Z,3.47
2024-03-12T05:05:28.351Z,3.63
2024-03-12T05:07:55.401Z,3.27
2024-03-12T05:10:22.795Z,3.57
2024-03-12T05:12:53.175Z,3.00
2024-03-12T05:15:21.410Z,2.87
2024-03-12T05:17:49.819Z,3.10
2024-03-12T05:20:18.561Z,3.30
2024-03-12T05:22:46.036Z,3.37
2024-03-12T05:25:28.032Z,3.70
2024-03-12T05:27:55.426Z,3.30
2024-03-12T05:30:24.331Z,3.33
2024-03-12T05:32:54.468Z,3.40
2024-03-12T05:35:23.590Z,3.50
2024-03-12T05:38:10.062Z,3.47
2024-03-12T05:40:56.020Z,3.20
2024-03-12T05:43:41.589Z,3.47
2024-03-12T05:46:27.336Z,3.03
2024-03-12T05:48:54.515Z,3.03
2024-03-12T05:51:21.797Z,3.30
2024-03-12T05:53:49.558Z,3.17
2024-03-12T05:56:18.986Z,2.93
2024-03-12T05:58:47.161Z,3.23
2024-03-12T06:01:14.854Z,2.90
2024-03-12T06:03:42.224Z,3.37
2024-03-12T06:06:09.438Z,3.03
2024-03-12T06:08:36.909Z,3.27
2024-03-12T06:11:04.330Z,2.80
2024-03-12T06:13:32.470Z,2.50
2024-03-12T06:15:59.564Z,3.40
2024-03-12T06:18:29.262Z,3.10
2024-03-12T06:20:56.758Z,3.50
2024-03-12T06:23:24.621Z,3.67
2024-03-12T06:25:51.964Z,3.83
2024-03-12T06:28:22.811Z,3.57
2024-03-12T06:30:50.157Z,3.17
2024-03-12T06:33:20.357Z,3.33
2024-03-12T06:35:50.264Z,3.50
2024-03-12T06:38:21.256Z,3.27
2024-03-12T06:40:51.809Z,3.90
2024-03-12T06:43:19.794Z,3.43
2024-03-12T06:45:48.011Z,3.80
2024-03-12T06:48:18.966Z,3.90
2024-03-12T06:50:46.879Z,3.90
2024-03-12T06:53:15.623Z,4.40
2024-03-12T06:55:42.860Z,4.33
2024-03-12T06:58:12.989Z,3.90
2024-03-12T07:00:45.926Z,4.00
2024-03-12T07:03:15.462Z,4.10
2024-03-12T07:05:48.317Z,4.03
2024-03-12T07:08:18.151Z,3.73
2024-03-12T07:10:46.415Z,3.80
2024-03-12T07:13:14.059Z,3.93
2024-03-12T07:15:42.049Z,4.10
2024-03-12T07:18:09.459Z,4.83
2024-03-12T07:20:36.818Z,4.90
2024-03-12T07:23:04.266Z,4.40
2024-03-12T07:25:34.342Z,3.80
2024-03-12T07:28:08.303Z,4.10
2024-03-12T07:30:36.506Z,3.30
2024-03-12T07:33:04.466Z,3.30
2024-03-12T07:35:32.124Z,3.27
2024-03-12T07:38:01.423Z,3.60
2024-03-12T07:40:28.659Z,3.33
2024-03-12T07:42:55.788Z,4.40
2024-03-12T07:45:25.922Z,4.10
2024-03-12T07:47:53.353Z,4.40
2024-03-12T07:50:20.501Z,5.33
2024-03-12T07:52:47.582Z,5.37
2024-03-12T07:55:14.885Z,4.80
2024-03-12T07:57:42.034Z,4.57
2024-03-12T08:00:15.830Z,4.57
2024-03-12T08:02:43.504Z,4.00
2024-03-12T08:05:12.073Z,3.97
2024-03-12T08:07:39.872Z,3.93
2024-03-12T08:10:07.400Z,4.10
2024-03-12T08:12:34.704Z,3.63
2024-03-12T08:15:02.253Z,4.30
2024-03-12T08:17:29.665Z,4.50
2024-03-12T08:19:57.890Z,4.00
2024-03-12T08:22:25.080Z,4.40
2024-03-12T08:24:52.807Z,4.20
2024-03-12T08:27:20.072Z,4.00
2024-03-12T08:29:47.209Z,4.23
2024-03-12T08:32:14.369Z,4.10
2024-03-12T08:34:42.809Z,4.30
2024-03-12T08:37:12.834Z,4.50
2024-03-12T08:39:40.485Z,4.60
2024-03-12T08:42:10.500Z,4.70
2024-03-12T08:44:38.351Z,4.13
2024-03-12T08:47:05.833Z,4.00
2024-03-12T08:49:34.385Z,4.53
2024-03-12T08:52:01.605Z,4.53
2024-03-12T08:54:28.878Z,4.73
2024-03-12T08:56:56.110Z,4.40
2024-03-12T08:59:23.182Z,4.90
2024-03-12T09:01:50.420Z,5.00
2024-03-12T09:04:17.762Z,4.60
2024-03-12T09:06:44.864Z,4.70
2024-03-12T09:09:15.151Z,5.13
2024-03-12T09:11:42.364Z,5.17
2024-03-12T09:14:09.511Z,4.80
2024-03-12T09:16:36.528Z,5.47
2024-03-12T09:19:05.821Z,5.50
2024-03-12T09:21:35.054Z,5.60
2024-03-12T09:24:02.894Z,6.00
2024-03-12T09:26:30.757Z,5.13
2024-03-12T09:28:58.719Z,5.00
2024-03-12T09:31:25.978Z,4.97
2024-03-12T09:33:53.812Z,4.70
2024-03-12T09:36:21.706Z,4.37
2024-03-12T09:38:51.337Z,4.77
2024-03-12T09:41:18.735Z,4.87
2024-03-12T09:43:45.908Z,4.77
2024-03-12T09:46:13.379Z,4.43
2024-03-12T09:48:41.017Z,4.73
2024-03-12T09:51:08.138Z,5.73
2024-03-12T09:53:35.152Z,4.47
2024-03-12T09:56:07.618Z,5.00
2024-03-12T09:58:38.085Z,5.20
2024-03-12T10:01:05.358Z,4.63
2024-03-12T10:03:32.963Z,6.93
2024-03-12T10:06:00.128Z,8.23
2024-03-12T10:08:29.355Z,15.40
2024-03-12T10:10:57.067Z,9.10
2024-03-12T10:13:24.901Z,9.47
2024-03-12T10:15:53.220Z,11.57
2024-03-12T10:18:20.479Z,9.03
2024-03-12T10:20:47.850Z,9.23
2024-03-12T10:23:16.703Z,8.03
2024-03-12T10:25:45.955Z,11.30
2024-03-12T10:28:16.657Z,8.77
2024-03-12T10:30:44.018Z,5.87
2024-03-12T10:33:14.754Z,6.87
2024-03-12T10:35:45.304Z,5.63
2024-03-12T10:38:14.561Z,5.80
2024-03-12T10:40:42.621Z,5.63
2024-03-12T10:43:09.934Z,10.80
2024-03-12T10:45:37.345Z,10.73
2024-03-12T10:48:06.757Z,10.23
2024-03-12T10:50:33.814Z,14.10
2024-03-12T10:53:02.206Z,12.37
2024-03-12T10:55:34.056Z,18.50
2024-03-12T10:58:03.691Z,19.13
2024-03-12T11:00:31.531Z,7.77
2024-03-12T11:02:58.858Z,9.10
2024-03-12T11:05:26.248Z,9.23
2024-03-12T11:07:58.434Z,9.57
2024-03-12T11:10:33.692Z,9.63
2024-03-12T11:13:06.476Z,7.93
2024-03-12T11:15:35.064Z,7.07
2024-03-12T11:18:03.126Z,6.10
2024-03-12T11:20:30.244Z,6.43
2024-03-12T11:22:58.916Z,5.97
2024-03-12T11:25:33.771Z,5.67
2024-03-12T11:28:21.607Z,5.90
2024-03-12T11:30:49.929Z,5.67
2024-03-12T11:33:35.970Z,6.17
2024-03-12T11:36:04.511Z,6.13
2024-03-12T11:38:31.631Z,5.83
2024-03-12T11:41:02.104Z,5.40
2024-03-12T11:43:39.114Z,5.53
2024-03-12T11:46:08.100Z,5.67
2024-03-12T11:48:38.872Z,5.77
2024-03-12T11:51:06.262Z,5.37
2024-03-12T11:53:35.017Z,5.90
2024-03-12T11:56:11.690Z,5.70
2024-03-12T11:58:40.065Z,5.40
2024-03-12T12:01:08.126Z,5.30
2024-03-12T12:03:38.240Z,4.90
2024-03-12T12:06:07.307Z,4.90
2024-03-12T12:08:42.428Z,5.60
2024-03-12T12:11:13.401Z,6.17
2024-03-12T12:13:42.245Z,5.80
2024-03-12T12:16:15.211Z,5.80
2024-03-12T12:18:42.464Z,5.47
2024-03-12T12:21:16.116Z,5.43
2024-03-12T12:23:44.913Z,4.93
2024-03-12T12:26:15.769Z,5.07
2024-03-12T12:28:42.804Z,4.90
2024-03-12T12:31:12.821Z,4.83
2024-03-12T12:33:40.890Z,5.20
2024-03-12T12:36:14.086Z,5.17
2024-03-12T12:38:49.452Z,5.67
2024-03-12T12:41:22.580Z,5.27
2024-03-12T12:43:50.664Z,5.23
2024-03-12T12:46:19.600Z,5.90
2024-03-12T12:48:49.502Z,5.30
2024-03-12T12:51:16.570Z,5.70
2024-03-12T12:53:46.220Z,6.23
2024-03-12T12:56:13.356Z,7.30
2024-03-12T12:58:43.129Z,7.20
2024-03-12T13:01:13.310Z,6.57
2024-03-12T13:03:45.016Z,6.80
2024-03-12T13:06:13.652Z,6.53
2024-03-12T13:08:42.983Z,6.67
2024-03-12T13:11:10.354Z,6.27
2024-03-12T13:13:38.251Z,6.23
2024-03-12T13:16:11.505Z,6.90
2024-03-12T13:18:40.629Z,5.97
2024-03-12T13:21:08.473Z,6.20
2024-03-12T13:23:36.944Z,5.30
2024-03-12T13:26:04.526Z,5.37
2024-03-12T13:28:31.906Z,5.83
2024-03-12T13:30:59.217Z,5.73
2024-03-12T13:33:27.250Z,5.20
2024-03-12T13:35:55.732Z,5.23
2024-03-12T13:38:24.232Z,4.70
2024-03-12T13:40:51.304Z,4.97
2024-03-12T13:43:18.387Z,5.63
2024-03-12T13:45:47.062Z,4.93
2024-03-12T13:48:15.686Z,5.40
2024-03-12T13:50:44.581Z,4.83
2024-03-12T13:53:12.053Z,5.67
2024-03-12T13:55:39.137Z,6.20
2024-03-12T13:58:06.948Z,5.80
2024-03-12T14:00:34.203Z,5.23
2024-03-12T14:03:01.336Z,5.20
2024-03-12T14:05:28.409Z,5.50
2024-03-12T14:07:55.501Z,5.13
2024-03-12T14:10:22.670Z,5.07
2024-03-12T14:12:49.968Z,4.23
2024-03-12T14:15:17.222Z,4.67
2024-03-12T14:17:44.402Z,4.37
2024-03-12T14:20:19.009Z,4.83
2024-03-12T14:22:46.143Z,4.40
2024-03-12T14:25:13.962Z,4.50
2024-03-12T14:27:41.220Z,4.30
2024-03-12T14:30:09.608Z,3.93
2024-03-12T14:32:37.406Z,4.20
2024-03-12T14:35:06.141Z,4.10
2024-03-12T14:37:33.748Z,4.40
2024-03-12T14:40:01.258Z,3.93
2024-03-12T14:42:29.350Z,4.17
2024-03-12T14:44:56.440Z,4.20
2024-03-12T14:47:23.643Z,3.83
2024-03-12T14:49:50.819Z,3.60
2024-03-12T14:52:17.941Z,4.67
2024-03-12T14:54:45.169Z,4.20
2024-03-12T14:57:12.232Z,4.37
2024-03-12T14:59:40.341Z,4.40
2024-03-12T15:02:07.590Z,4.20
2024-03-12T15:04:36.640Z,4.17
2024-03-12T15:07:03.789Z,4.93
2024-03-12T15:09:30.914Z,4.30
2024-03-12T15:12:01.569Z,4.53
2024-03-12T15:14:28.944Z,4.63
2024-03-12T15:16:57.461Z,5.20
2024-03-12T15:19:24.787Z,4.97
2024-03-12T15:21:52.525Z,4.57
2024-03-12T15:24:20.246Z,4.77
2024-03-12T15:26:50.842Z,4.77
2024-03-12T15:29:21.350Z,4.30
2024-03-12T15:31:48.463Z,3.70
2024-03-12T15:34:15.798Z,3.80
2024-03-12T15:36:43.152Z,3.67
2024-03-12T15:39:10.604Z,3.60
2024-03-12T15:41:38.131Z,3.40
2024-03-12T15:44:07.708Z,3.60
2024-03-12T15:46:34.770Z,3.50
2024-03-12T15:49:01.956Z,3.37
2024-03-12T15:51:29.181Z,3.50
2024-03-12T15:53:56.313Z,3.30
2024-03-12T15:56:24.254Z,2.97
2024-03-12T15:58:54.426Z,3.13
2024-03-12T16:01:23.372Z,3.17
2024-03-12T16:03:50.990Z,2.80
2024-03-12T16:06:18.399Z,3.13
2024-03-12T16:08:47.864Z,3.13
2024-03-12T16:11:16.475Z,2.70
2024-03-12T16:13:43.786Z,2.80
2024-03-12T16:16:10.966Z,2.70
2024-03-12T16:18:38.158Z,2.60
2024-03-12T16:21:05.410Z,2.57
2024-03-12T16:23:32.506Z,2.73
2024-03-12T16:25:59.533Z,2.60
2024-03-12T16:28:27.264Z,2.50
2024-03-12T16:30:56.023Z,2.60
2024-03-12T16:33:23.122Z,2.73
2024-03-12T16:35:50.748Z,2.53
2024-03-12T16:38:17.892Z,2.53
2024-03-12T16:40:46.915Z,2.57
2024-03-12T16:43:14.091Z,2.30
2024-03-12T16:45:41.209Z,2.10
2024-03-12T16:48:09.568Z,2.20
2024-03-12T16:50:36.904Z,1.90
2024-03-12T16:53:04.023Z,1.80
2024-03-12T16:55:31.270Z,2.13
2024-03-12T16:57:58.559Z,1.50
2024-03-12T17:00:25.844Z,1.70
2024-03-12T17:02:53.055Z,1.50
2024-03-12T17:05:23.864Z,1.57
2024-03-12T17:07:51.810Z,1.43
2024-03-12T17:10:23.420Z,1.20
2024-03-12T17:12:50.877Z,1.53
2024-03-12T17:15:21.430Z,1.30
2024-03-12T17:17:48.780Z,1.30
2024-03-12T17:20:17.609Z,1.30
2024-03-12T17:22:46.715Z,1.20
2024-03-12T17:25:14.284Z,1.30
2024-03-12T17:27:45.085Z,1.40
2024-03-12T17:30:12.616Z,1.17
2024-03-12T17:32:40.522Z,1.30
2024-03-12T17:35:10.432Z,1.07
2024-03-12T17:37:38.328Z,1.10
2024-03-12T17:40:15.031Z,1.00
2024-03-12T17:42:43.465Z,1.10
2024-03-12T17:45:13.184Z,1.40
2024-03-12T17:47:41.754Z,1.10
2024-03-12T17:50:09.028Z,1.37
2024-03-12T17:52:36.234Z,0.90
2024-03-12T17:55:03.437Z,1.10
2024-03-12T17:57:30.725Z,0.90
2024-03-12T17:59:57.850Z,0.93
2024-03-12T18:02:25.021Z,0.87
2024-03-12T18:04:52.233Z,1.00
2024-03-12T18:07:22.462Z,1.03
2024-03-12T18:09:50.919Z,1.00
2024-03-12T18:12:18.194Z,1.00
2024-03-12T18:14:45.545Z,1.00
2024-03-12T18:17:13.669Z,0.90
2024-03-12T18:19:40.782Z,1.00
2024-03-12T18:22:08.353Z,1.13
2024-03-12T18:24:35.547Z,1.10
2024-03-12T18:27:02.643Z,0.90
2024-03-12T18:29:30.781Z,1.10
2024-03-12T18:31:58.537Z,1.00
2024-03-12T18:34:25.620Z,0.80
2024-03-12T18:36:54.743Z,0.80
2024-03-12T18:39:26.263Z,1.00
2024-03-12T18:41:55.928Z,1.13
2024-03-12T18:44:23.099Z,0.80
2024-03-12T18:46:50.526Z,1.13
2024-03-12T18:49:19.492Z,1.10
2024-03-12T18:51:47.225Z,1.10
2024-03-12T18:54:14.634Z,0.90
2024-03-12T18:56:41.855Z,1.20
2024-03-12T18:59:09.048Z,1.13
2024-03-12T19:01:36.426Z,0.80
2024-03-12T19:04:04.001Z,0.80
2024-03-12T19:06:31.316Z,0.73
2024-03-12T19:08:58.449Z,1.00
2024-03-12T19:11:25.785Z,0.80
2024-03-12T19:13:54.747Z,0.90
2024-03-12T19:16:22.638Z,1.10
2024-03-12T19:18:50.454Z,1.00
2024-03-12T19:21:18.118Z,0.80
2024-03-12T19:23:45.184Z,1.00
2024-03-12T19:26:14.379Z,0.90
2024-03-12T19:28:41.961Z,0.80
2024-03-12T19:31:10.228Z,1.00
2024-03-12T19:33:38.368Z,0.77
2024-03-12T19:36:06.542Z,0.90
2024-03-12T19:38:33.929Z,0.80
2024-03-12T19:41:02.517Z,0.80
2024-03-12T19:43:30.042Z,0.90
2024-03-12T19:45:59.655Z,1.20
2024-03-12T19:48:28.262Z,0.70
2024-03-12T19:50:55.713Z,0.60
2024-03-12T19:53:23.110Z,0.80
2024-03-12T19:55:52.103Z,0.67
2024-03-12T19:58:19.661Z,0.80
2024-03-12T20:00:49.693Z,0.63
2024-03-12T20:03:23.178Z,0.50
2024-03-12T20:05:50.549Z,0.60
2024-03-12T20:08:17.969Z,0.50
2024-03-12T20:10:46.925Z,0.70
2024-03-12T20:13:14.456Z,0.50
2024-03-12T20:15:46.821Z,0.77
2024-03-12T20:18:14.857Z,0.50
2024-03-12T20:20:44.026Z,0.57
2024-03-12T20:23:11.634Z,0.40
2024-03-12T20:25:38.795Z,0.50
2024-03-12T20:28:10.120Z,0.60
2024-03-12T20:30:39.169Z,0.60
2024-03-12T20:33:08.955Z,0.63
2024-03-12T20:35:38.340Z,0.50
2024-03-12T20:38:05.726Z,0.60
2024-03-12T20:40:33.831Z,0.50
2024-03-12T20:43:01.316Z,0.50
2024-03-12T20:45:28.709Z,0.50
2024-03-12T20:47:56.078Z,0.70
2024-03-12T20:50:23.254Z,0.43
2024-03-12T20:52:51.108Z,0.60
2024-03-12T20:55:19.468Z,0.20
2024-03-12T20:57:49.734Z,0.40
2024-03-12T21:00:18.154Z,0.40
2024-03-12T21:02:49.342Z,0.30
2024-03-12T21:05:17.028Z,0.50
2024-03-12T21:07:44.759Z,0.33
2024-03-12T21:10:12.797Z,0.30
2024-03-12T21:12:40.369Z,0.50
2024-03-12T21:15:08.286Z,0.40
2024-03-12T21:17:35.842Z,0.40
2024-03-12T21:20:19.074Z,0.37
2024-03-12T21:22:46.231Z,0.40
2024-03-12T21:25:13.393Z,0.50
2024-03-12T21:27:40.774Z,0.30
2024-03-12T21:30:14.104Z,0.43
2024-03-12T21:32:41.830Z,0.40
2024-03-12T21:35:09.134Z,0.33
2024-03-12T21:37:37.486Z,0.40
2024-03-12T21:40:07.551Z,0.40
2024-03-12T21:42:34.702Z,0.30
2024-03-12T21:45:05.572Z,0.40
2024-03-12T21:47:32.655Z,0.30
2024-03-12T21:49:59.871Z,0.30
2024-03-12T21:52:26.999Z,0.20
2024-03-12T21:54:54.076Z,0.20
2024-03-12T21:57:22.881Z,0.50
2024-03-12T21:59:49.949Z,0.30
2024-03-12T22:02:17.062Z,0.30
2024-03-12T22:04:44.129Z,0.40
2024-03-12T22:07:13.009Z,0.30
2024-03-12T22:09:40.194Z,0.20
2024-03-12T22:12:07.424Z,0.40
2024-03-12T22:14:34.497Z,0.27
2024-03-12T22:17:01.535Z,0.20
2024-03-12T22:19:29.092Z,0.20
2024-03-12T22:21:56.194Z,0.30
2024-03-12T22:24:23.848Z,0.30
2024-03-12T22:26:54.253Z,0.20
2024-03-12T22:29:21.501Z,0.30
2024-03-12T22:31:49.626Z,0.20
2024-03-12T22:34:17.254Z,0.40
2024-03-12T22:36:45.413Z,0.20
2024-03-12T22:39:14.347Z,0.27
2024-03-12T22:41:48.420Z,0.30
2024-03-12T22:44:15.977Z,0.20
2024-03-12T22:46:45.408Z,0.20
2024-03-12T22:49:12.800Z,0.10
2024-03-12T22:51:40.626Z,0.10
2024-03-12T22:54:09.019Z,0.23
2024-03-12T22:56:36.239Z,0.20
2024-03-12T22:59:03.361Z,0.20
2024-03-12T23:01:31.481Z,0.20
2024-03-12T23:03:58.799Z,0.20
2024-03-12T23:06:26.240Z,0.20
2024-03-12T23:08:53.471Z,0.20
2024-03-12T23:11:23.190Z,0.20
2024-03-12T23:13:50.283Z,0.20
2024-03-12T23:16:17.501Z,0.20
2024-03-12T23:18:46.620Z,0.13
2024-03-12T23:21:14.849Z,0.20
2024-03-12T23:23:41.922Z,0.20
2024-03-12T23:26:09.256Z,0.10
2024-03-12T23:28:36.369Z,0.20
2024-03-12T23:31:03.443Z,0.30
2024-03-12T23:33:30.600Z,0.10
2024-03-12T23:35:57.660Z,0.10
2024-03-12T23:38:24.700Z,0.20
2024-03-12T23:40:54.096Z,0.20
2024-03-12T23:43:21.277Z,0.10
2024-03-12T23:45:49.820Z,0.10
2024-03-12T23:48:16.893Z,0.20
2024-03-12T23:50:45.472Z,0.30
2024-03-12T23:53:12.587Z,0.17
2024-03-12T23:55:40.427Z,0.20
2024-03-12T23:58:07.611Z,0.20
